sensor_id;sensor_type;location;lat;lon;timestamp;P1;durP1;ratioP1;P2;durP2;ratioP2
9689;SDS011;4884;42.614;23.340;2023-04-04T00:00:09;2.10;;;1.90;;
9689;SDS011;4884;42.614;23.340;2023-04-04T00:02:35;2.20;;;2.10;;
9689;SDS011;4884;42.614;23.340;2023-04-04T00:05:01;2.47;;;2.37;;
9689;SDS011;4884;42.614;23.340;2023-04-04T00:07:26;2.70;;;2.50;;
9689;SDS011;4884;42.614;23.340;2023-04-04T00:09:52;2.70;;;2.50;;
9689;SDS011;4884;42.614;23.340;2023-04-04T00:12:17;2.60;;;2.40;;
9689;SDS011;4884;42.614;23.340;2023-04-04T00:14:43;2.83;;;2.60;;
9689;SDS011;4884;42.614;23.340;2023-04-04T00:17:08;3.70;;;2.87;;
9689;SDS011;4884;42.614;23.340;2023-04-04T00:19:33;2.77;;;2.57;;
9689;SDS011;4884;42.614;23.340;2023-04-04T00:21:59;3.93;;;3.63;;
9689;SDS011;4884;42.614;23.340;2023-04-04T00:24:24;4.40;;;4.00;;
9689;SDS011;4884;42.614;23.340;2023-04-04T00:26:50;5.87;;;3.77;;
9689;SDS011;4884;42.614;23.340;2023-04-04T00:29:16;4.07;;;3.67;;
9689;SDS011;4884;42.614;23.340;2023-04-04T00:31:41;4.20;;;3.90;;
9689;SDS011;4884;42.614;23.340;2023-04-04T00:34:07;4.87;;;4.47;;
9689;SDS011;4884;42.614;23.340;2023-04-04T00:36:33;5.27;;;4.87;;
9689;SDS011;4884;42.614;23.340;2023-04-04T00:38:58;5.13;;;4.23;;
9689;SDS011;4884;42.614;23.340;2023-04-04T00:41:23;5.70;;;5.20;;
9689;SDS011;4884;42.614;23.340;2023-04-04T00:43:49;6.47;;;5.87;;
9689;SDS011;4884;42.614;23.340;2023-04-04T00:46:14;5.50;;;5.00;;
9689;SDS011;4884;42.614;23.340;2023-04-04T00:48:42;6.17;;;5.53;;
9689;SDS011;4884;42.614;23.340;2023-04-04T00:51:08;5.53;;;5.03;;
9689;SDS011;4884;42.614;23.340;2023-04-04T00:53:33;7.20;;;5.97;;
9689;SDS011;4884;42.614;23.340;2023-04-04T00:55:59;5.93;;;5.43;;
9689;SDS011;4884;42.614;23.340;2023-04-04T00:58:25;5.70;;;5.20;;
9689;SDS011;4884;42.614;23.340;2023-04-04T01:00:51;7.03;;;6.43;;
9689;SDS011;4884;42.614;23.340;2023-04-04T01:03:16;7.30;;;6.17;;
9689;SDS011;4884;42.614;23.340;2023-04-04T01:05:43;7.83;;;6.70;;
9689;SDS011;4884;42.614;23.340;2023-04-04T01:08:08;7.17;;;6.57;;
9689;SDS011;4884;42.614;23.340;2023-04-04T01:10:34;7.20;;;6.47;;
9689;SDS011;4884;42.614;23.340;2023-04-04T01:13:00;7.10;;;6.13;;
9689;SDS011;4884;42.614;23.340;2023-04-04T01:15:25;6.00;;;4.93;;
9689;SDS011;4884;42.614;23.340;2023-04-04T01:17:51;3.80;;;3.40;;
9689;SDS011;4884;42.614;23.340;2023-04-04T01:20:22;3.23;;;2.93;;
9689;SDS011;4884;42.614;23.340;2023-04-04T01:22:50;2.60;;;2.40;;
9689;SDS011;4884;42.614;23.340;2023-04-04T01:25:17;2.40;;;2.03;;
9689;SDS011;4884;42.614;23.340;2023-04-04T01:27:43;1.60;;;1.50;;
9689;SDS011;4884;42.614;23.340;2023-04-04T01:30:08;4.53;;;2.57;;
9689;SDS011;4884;42.614;23.340;2023-04-04T01:32:36;1.30;;;1.20;;
9689;SDS011;4884;42.614;23.340;2023-04-04T01:40:43;1.67;;;1.40;;
9689;SDS011;4884;42.614;23.340;2023-04-04T01:43:15;4.23;;;3.00;;
9689;SDS011;4884;42.614;23.340;2023-04-04T01:45:41;2.60;;;1.70;;
9689;SDS011;4884;42.614;23.340;2023-04-04T01:48:06;1.83;;;1.30;;
9689;SDS011;4884;42.614;23.340;2023-04-04T01:50:33;1.17;;;1.07;;
9689;SDS011;4884;42.614;23.340;2023-04-04T01:52:58;1.33;;;1.20;;
9689;SDS011;4884;42.614;23.340;2023-04-04T01:55:23;1.10;;;1.00;;
9689;SDS011;4884;42.614;23.340;2023-04-04T01:57:49;0.93;;;0.93;;
9689;SDS011;4884;42.614;23.340;2023-04-04T02:00:15;1.83;;;1.53;;
9689;SDS011;4884;42.614;23.340;2023-04-04T02:02:41;0.80;;;0.80;;
9689;SDS011;4884;42.614;23.340;2023-04-04T02:05:07;0.90;;;0.90;;
9689;SDS011;4884;42.614;23.340;2023-04-04T02:07:32;0.67;;;0.67;;
9689;SDS011;4884;42.614;23.340;2023-04-04T02:09:58;0.67;;;0.67;;
9689;SDS011;4884;42.614;23.340;2023-04-04T02:12:23;0.97;;;0.70;;
9689;SDS011;4884;42.614;23.340;2023-04-04T02:14:48;0.60;;;0.60;;
9689;SDS011;4884;42.614;23.340;2023-04-04T02:17:14;0.50;;;0.50;;
9689;SDS011;4884;42.614;23.340;2023-04-04T02:19:40;0.83;;;0.60;;
9689;SDS011;4884;42.614;23.340;2023-04-04T02:22:05;0.60;;;0.60;;
9689;SDS011;4884;42.614;23.340;2023-04-04T02:24:31;0.60;;;0.60;;
9689;SDS011;4884;42.614;23.340;2023-04-04T02:26:56;2.23;;;0.70;;
9689;SDS011;4884;42.614;23.340;2023-04-04T02:29:21;0.97;;;0.50;;
9689;SDS011;4884;42.614;23.340;2023-04-04T02:31:47;0.43;;;0.43;;
9689;SDS011;4884;42.614;23.340;2023-04-04T02:34:13;0.50;;;0.50;;
9689;SDS011;4884;42.614;23.340;2023-04-04T02:36:38;1.00;;;0.70;;
9689;SDS011;4884;42.614;23.340;2023-04-04T02:39:03;0.70;;;0.70;;
9689;SDS011;4884;42.614;23.340;2023-04-04T02:41:29;0.63;;;0.63;;
9689;SDS011;4884;42.614;23.340;2023-04-04T02:43:55;0.50;;;0.47;;
9689;SDS011;4884;42.614;23.340;2023-04-04T02:46:20;0.60;;;0.60;;
9689;SDS011;4884;42.614;23.340;2023-04-04T02:48:46;0.70;;;0.70;;
9689;SDS011;4884;42.614;23.340;2023-04-04T02:51:11;1.03;;;0.73;;
9689;SDS011;4884;42.614;23.340;2023-04-04T02:53:37;1.10;;;0.90;;
9689;SDS011;4884;42.614;23.340;2023-04-04T02:56:02;1.70;;;1.07;;
9689;SDS011;4884;42.614;23.340;2023-04-04T02:58:28;1.83;;;1.43;;
9689;SDS011;4884;42.614;23.340;2023-04-04T03:00:55;1.27;;;1.17;;
9689;SDS011;4884;42.614;23.340;2023-04-04T03:03:21;1.47;;;1.30;;
9689;SDS011;4884;42.614;23.340;2023-04-04T03:05:46;1.47;;;1.23;;
9689;SDS011;4884;42.614;23.340;2023-04-04T03:08:13;1.43;;;1.33;;
9689;SDS011;4884;42.614;23.340;2023-04-04T03:10:39;1.63;;;1.37;;
9689;SDS011;4884;42.614;23.340;2023-04-04T03:13:04;1.63;;;1.50;;
9689;SDS011;4884;42.614;23.340;2023-04-04T03:15:30;1.90;;;1.60;;
9689;SDS011;4884;42.614;23.340;2023-04-04T03:17:55;2.20;;;0.90;;
9689;SDS011;4884;42.614;23.340;2023-04-04T03:20:21;1.43;;;1.33;;
9689;SDS011;4884;42.614;23.340;2023-04-04T03:22:46;1.57;;;1.40;;
9689;SDS011;4884;42.614;23.340;2023-04-04T03:25:12;1.77;;;1.27;;
9689;SDS011;4884;42.614;23.340;2023-04-04T03:27:37;1.57;;;1.37;;
9689;SDS011;4884;42.614;23.340;2023-04-04T03:30:04;1.57;;;1.47;;
9689;SDS011;4884;42.614;23.340;2023-04-04T03:32:31;1.80;;;1.60;;
9689;SDS011;4884;42.614;23.340;2023-04-04T03:34:56;1.63;;;1.47;;
9689;SDS011;4884;42.614;23.340;2023-04-04T03:37:22;1.43;;;1.20;;
9689;SDS011;4884;42.614;23.340;2023-04-04T03:39:47;1.40;;;1.30;;
9689;SDS011;4884;42.614;23.340;2023-04-04T03:42:12;1.23;;;1.13;;
9689;SDS011;4884;42.614;23.340;2023-04-04T03:44:39;1.43;;;1.33;;
9689;SDS011;4884;42.614;23.340;2023-04-04T03:47:07;1.23;;;1.10;;
9689;SDS011;4884;42.614;23.340;2023-04-04T03:49:33;2.20;;;1.20;;
9689;SDS011;4884;42.614;23.340;2023-04-04T03:51:58;1.67;;;1.30;;
9689;SDS011;4884;42.614;23.340;2023-04-04T03:54:26;1.90;;;1.50;;
9689;SDS011;4884;42.614;23.340;2023-04-04T03:56:52;1.87;;;1.53;;
9689;SDS011;4884;42.614;23.340;2023-04-04T03:59:17;1.80;;;1.50;;
9689;SDS011;4884;42.614;23.340;2023-04-04T04:01:43;2.13;;;1.60;;
9689;SDS011;4884;42.614;23.340;2023-04-04T04:04:08;2.63;;;1.90;;
9689;SDS011;4884;42.614;23.340;2023-04-04T04:06:33;2.30;;;2.03;;
9689;SDS011;4884;42.614;23.340;2023-04-04T04:08:59;6.13;;;4.60;;
9689;SDS011;4884;42.614;23.340;2023-04-04T04:11:25;12.10;;;10.03;;
9689;SDS011;4884;42.614;23.340;2023-04-04T04:13:50;15.33;;;11.33;;
9689;SDS011;4884;42.614;23.340;2023-04-04T04:16:16;17.87;;;14.60;;
9689;SDS011;4884;42.614;23.340;2023-04-04T04:18:41;23.77;;;15.27;;
9689;SDS011;4884;42.614;23.340;2023-04-04T04:21:07;73.23;;;48.17;;
9689;SDS011;4884;42.614;23.340;2023-04-04T04:23:33;38.73;;;22.30;;
9689;SDS011;4884;42.614;23.340;2023-04-04T04:25:58;94.90;;;47.10;;
9689;SDS011;4884;42.614;23.340;2023-04-04T04:28:24;109.33;;;56.03;;
9689;SDS011;4884;42.614;23.340;2023-04-04T04:30:50;74.13;;;37.73;;
9689;SDS011;4884;42.614;23.340;2023-04-04T04:33:16;42.33;;;25.33;;
9689;SDS011;4884;42.614;23.340;2023-04-04T04:35:41;41.53;;;24.37;;
9689;SDS011;4884;42.614;23.340;2023-04-04T04:38:07;24.17;;;15.00;;
9689;SDS011;4884;42.614;23.340;2023-04-04T04:40:33;7.40;;;5.50;;
9689;SDS011;4884;42.614;23.340;2023-04-04T04:42:59;7.87;;;6.20;;
9689;SDS011;4884;42.614;23.340;2023-04-04T04:45:24;18.00;;;11.40;;
9689;SDS011;4884;42.614;23.340;2023-04-04T04:47:50;9.97;;;8.10;;
9689;SDS011;4884;42.614;23.340;2023-04-04T04:50:16;11.27;;;8.23;;
9689;SDS011;4884;42.614;23.340;2023-04-04T04:52:41;9.17;;;6.47;;
9689;SDS011;4884;42.614;23.340;2023-04-04T04:55:07;9.83;;;8.13;;
9689;SDS011;4884;42.614;23.340;2023-04-04T04:57:33;11.20;;;7.10;;
9689;SDS011;4884;42.614;23.340;2023-04-04T04:59:59;11.93;;;7.77;;
9689;SDS011;4884;42.614;23.340;2023-04-04T05:02:25;10.03;;;8.93;;
9689;SDS011;4884;42.614;23.340;2023-04-04T05:04:51;4.87;;;4.37;;
9689;SDS011;4884;42.614;23.340;2023-04-04T05:07:17;9.33;;;7.53;;
9689;SDS011;4884;42.614;23.340;2023-04-04T05:09:42;13.77;;;11.30;;
9689;SDS011;4884;42.614;23.340;2023-04-04T05:12:08;10.67;;;9.30;;
9689;SDS011;4884;42.614;23.340;2023-04-04T05:14:33;8.07;;;6.10;;
9689;SDS011;4884;42.614;23.340;2023-04-04T05:16:58;25.03;;;16.80;;
9689;SDS011;4884;42.614;23.340;2023-04-04T05:19:24;21.40;;;14.37;;
9689;SDS011;4884;42.614;23.340;2023-04-04T05:21:49;14.00;;;10.50;;
9689;SDS011;4884;42.614;23.340;2023-04-04T05:24:15;14.40;;;10.40;;
9689;SDS011;4884;42.614;23.340;2023-04-04T05:26:41;21.90;;;18.23;;
9689;SDS011;4884;42.614;23.340;2023-04-04T05:29:06;66.53;;;59.33;;
9689;SDS011;4884;42.614;23.340;2023-04-04T05:31:32;52.40;;;46.80;;
9689;SDS011;4884;42.614;23.340;2023-04-04T05:33:57;26.50;;;23.67;;
9689;SDS011;4884;42.614;23.340;2023-04-04T05:36:23;33.60;;;30.00;;
9689;SDS011;4884;42.614;23.340;2023-04-04T05:38:48;24.03;;;21.63;;
9689;SDS011;4884;42.614;23.340;2023-04-04T05:41:14;13.30;;;11.70;;
9689;SDS011;4884;42.614;23.340;2023-04-04T05:43:39;9.60;;;8.20;;
9689;SDS011;4884;42.614;23.340;2023-04-04T05:46:04;12.13;;;9.40;;
9689;SDS011;4884;42.614;23.340;2023-04-04T05:48:30;11.47;;;9.63;;
9689;SDS011;4884;42.614;23.340;2023-04-04T05:50:55;12.40;;;11.00;;
9689;SDS011;4884;42.614;23.340;2023-04-04T05:53:21;12.20;;;9.97;;
9689;SDS011;4884;42.614;23.340;2023-04-04T05:55:49;8.13;;;7.33;;
9689;SDS011;4884;42.614;23.340;2023-04-04T05:58:17;8.57;;;6.10;;
9689;SDS011;4884;42.614;23.340;2023-04-04T06:00:42;6.70;;;5.80;;
9689;SDS011;4884;42.614;23.340;2023-04-04T06:03:07;6.33;;;5.73;;
9689;SDS011;4884;42.614;23.340;2023-04-04T06:05:34;6.33;;;5.77;;
9689;SDS011;4884;42.614;23.340;2023-04-04T06:07:59;11.73;;;8.53;;
9689;SDS011;4884;42.614;23.340;2023-04-04T06:10:25;12.30;;;10.57;;
9689;SDS011;4884;42.614;23.340;2023-04-04T06:12:51;13.20;;;11.90;;
9689;SDS011;4884;42.614;23.340;2023-04-04T06:15:19;15.97;;;14.37;;
9689;SDS011;4884;42.614;23.340;2023-04-04T06:17:45;19.87;;;17.77;;
9689;SDS011;4884;42.614;23.340;2023-04-04T06:20:10;20.53;;;18.43;;
9689;SDS011;4884;42.614;23.340;2023-04-04T06:22:36;26.33;;;22.57;;
9689;SDS011;4884;42.614;23.340;2023-04-04T06:25:01;31.00;;;27.60;;
9689;SDS011;4884;42.614;23.340;2023-04-04T06:27:26;40.80;;;32.60;;
9689;SDS011;4884;42.614;23.340;2023-04-04T06:29:52;25.20;;;22.60;;
9689;SDS011;4884;42.614;23.340;2023-04-04T06:32:18;29.67;;;26.63;;
9689;SDS011;4884;42.614;23.340;2023-04-04T06:34:44;38.07;;;34.17;;
9689;SDS011;4884;42.614;23.340;2023-04-04T06:37:09;24.93;;;21.13;;
9689;SDS011;4884;42.614;23.340;2023-04-04T06:39:35;18.70;;;16.53;;
9689;SDS011;4884;42.614;23.340;2023-04-04T06:42:00;20.33;;;18.20;;
9689;SDS011;4884;42.614;23.340;2023-04-04T06:44:26;19.53;;;15.53;;
9689;SDS011;4884;42.614;23.340;2023-04-04T06:46:51;17.20;;;14.97;;
9689;SDS011;4884;42.614;23.340;2023-04-04T06:49:17;13.17;;;11.30;;
9689;SDS011;4884;42.614;23.340;2023-04-04T06:51:43;12.37;;;10.87;;
9689;SDS011;4884;42.614;23.340;2023-04-04T06:54:08;13.57;;;10.33;;
9689;SDS011;4884;42.614;23.340;2023-04-04T06:56:34;11.77;;;10.53;;
9689;SDS011;4884;42.614;23.340;2023-04-04T06:58:59;11.10;;;9.90;;
9689;SDS011;4884;42.614;23.340;2023-04-04T07:01:24;7.40;;;6.70;;
9689;SDS011;4884;42.614;23.340;2023-04-04T07:03:53;8.10;;;7.30;;
9689;SDS011;4884;42.614;23.340;2023-04-04T07:06:20;24.70;;;22.40;;
9689;SDS011;4884;42.614;23.340;2023-04-04T07:08:46;4.60;;;4.20;;
9689;SDS011;4884;42.614;23.340;2023-04-04T07:11:11;2.80;;;2.60;;
9689;SDS011;4884;42.614;23.340;2023-04-04T07:13:37;2.90;;;2.60;;
9689;SDS011;4884;42.614;23.340;2023-04-04T07:16:03;3.40;;;3.10;;
9689;SDS011;4884;42.614;23.340;2023-04-04T07:18:28;3.30;;;2.97;;
9689;SDS011;4884;42.614;23.340;2023-04-04T07:20:53;2.40;;;2.20;;
9689;SDS011;4884;42.614;23.340;2023-04-04T07:23:19;3.00;;;2.70;;
9689;SDS011;4884;42.614;23.340;2023-04-04T07:25:45;3.40;;;3.10;;
9689;SDS011;4884;42.614;23.340;2023-04-04T07:28:11;2.50;;;2.20;;
9689;SDS011;4884;42.614;23.340;2023-04-04T07:30:36;2.83;;;2.53;;
9689;SDS011;4884;42.614;23.340;2023-04-04T07:33:02;3.57;;;2.60;;
9689;SDS011;4884;42.614;23.340;2023-04-04T07:35:28;4.60;;;2.77;;
9689;SDS011;4884;42.614;23.340;2023-04-04T07:37:53;2.13;;;1.93;;
9689;SDS011;4884;42.614;23.340;2023-04-04T07:40:19;2.33;;;2.13;;
9689;SDS011;4884;42.614;23.340;2023-04-04T07:42:45;2.23;;;2.00;;
9689;SDS011;4884;42.614;23.340;2023-04-04T07:45:15;2.83;;;1.90;;
9689;SDS011;4884;42.614;23.340;2023-04-04T07:47:43;2.83;;;2.00;;
9689;SDS011;4884;42.614;23.340;2023-04-04T07:50:09;2.03;;;1.70;;
9689;SDS011;4884;42.614;23.340;2023-04-04T07:52:35;2.47;;;1.80;;
9689;SDS011;4884;42.614;23.340;2023-04-04T07:55:01;2.57;;;2.13;;
9689;SDS011;4884;42.614;23.340;2023-04-04T07:57:27;2.23;;;1.83;;
9689;SDS011;4884;42.614;23.340;2023-04-04T07:59:53;2.93;;;1.83;;
9689;SDS011;4884;42.614;23.340;2023-04-04T08:02:18;1.80;;;1.70;;
9689;SDS011;4884;42.614;23.340;2023-04-04T08:04:43;1.70;;;1.60;;
9689;SDS011;4884;42.614;23.340;2023-04-04T08:07:09;1.37;;;1.27;;
9689;SDS011;4884;42.614;23.340;2023-04-04T08:09:34;2.13;;;1.70;;
9689;SDS011;4884;42.614;23.340;2023-04-04T08:12:00;2.20;;;1.90;;
9689;SDS011;4884;42.614;23.340;2023-04-04T08:14:26;2.47;;;1.97;;
9689;SDS011;4884;42.614;23.340;2023-04-04T08:16:52;2.90;;;2.60;;
9689;SDS011;4884;42.614;23.340;2023-04-04T08:19:18;2.23;;;1.97;;
9689;SDS011;4884;42.614;23.340;2023-04-04T08:21:43;2.60;;;2.40;;
9689;SDS011;4884;42.614;23.340;2023-04-04T08:24:10;1.70;;;1.60;;
9689;SDS011;4884;42.614;23.340;2023-04-04T08:26:36;3.97;;;1.93;;
9689;SDS011;4884;42.614;23.340;2023-04-04T08:29:01;2.37;;;2.17;;
9689;SDS011;4884;42.614;23.340;2023-04-04T08:31:26;1.70;;;1.60;;
9689;SDS011;4884;42.614;23.340;2023-04-04T08:33:53;1.73;;;1.63;;
9689;SDS011;4884;42.614;23.340;2023-04-04T08:36:19;1.97;;;1.60;;
9689;SDS011;4884;42.614;23.340;2023-04-04T08:38:44;2.27;;;2.03;;
9689;SDS011;4884;42.614;23.340;2023-04-04T08:41:10;3.10;;;2.20;;
9689;SDS011;4884;42.614;23.340;2023-04-04T08:43:37;2.30;;;2.10;;
9689;SDS011;4884;42.614;23.340;2023-04-04T08:46:05;2.23;;;1.83;;
9689;SDS011;4884;42.614;23.340;2023-04-04T08:48:32;2.50;;;2.23;;
9689;SDS011;4884;42.614;23.340;2023-04-04T08:51:00;1.90;;;1.60;;
9689;SDS011;4884;42.614;23.340;2023-04-04T08:53:28;3.67;;;1.87;;
9689;SDS011;4884;42.614;23.340;2023-04-04T08:55:54;1.70;;;1.43;;
9689;SDS011;4884;42.614;23.340;2023-04-04T08:58:22;3.10;;;2.33;;
9689;SDS011;4884;42.614;23.340;2023-04-04T09:00:47;3.80;;;2.80;;
9689;SDS011;4884;42.614;23.340;2023-04-04T09:03:31;3.87;;;2.50;;
9689;SDS011;4884;42.614;23.340;2023-04-04T09:05:58;2.93;;;2.43;;
9689;SDS011;4884;42.614;23.340;2023-04-04T09:08:24;1.73;;;1.63;;
9689;SDS011;4884;42.614;23.340;2023-04-04T09:10:50;2.20;;;2.00;;
9689;SDS011;4884;42.614;23.340;2023-04-04T09:13:16;2.90;;;2.10;;
9689;SDS011;4884;42.614;23.340;2023-04-04T09:15:45;4.40;;;2.83;;
9689;SDS011;4884;42.614;23.340;2023-04-04T09:18:11;3.43;;;2.60;;
9689;SDS011;4884;42.614;23.340;2023-04-04T09:23:10;3.03;;;2.63;;
9689;SDS011;4884;42.614;23.340;2023-04-04T09:25:37;3.93;;;2.33;;
9689;SDS011;4884;42.614;23.340;2023-04-04T09:28:08;3.47;;;2.47;;
9689;SDS011;4884;42.614;23.340;2023-04-04T09:30:34;2.40;;;2.10;;
9689;SDS011;4884;42.614;23.340;2023-04-04T09:33:03;2.40;;;2.20;;
9689;SDS011;4884;42.614;23.340;2023-04-04T09:35:33;3.30;;;2.80;;
9689;SDS011;4884;42.614;23.340;2023-04-04T09:38:01;2.50;;;2.30;;
9689;SDS011;4884;42.614;23.340;2023-04-04T09:40:28;3.03;;;2.00;;
9689;SDS011;4884;42.614;23.340;2023-04-04T09:42:54;4.07;;;2.50;;
9689;SDS011;4884;42.614;23.340;2023-04-04T09:45:22;2.70;;;2.40;;
9689;SDS011;4884;42.614;23.340;2023-04-04T09:47:50;4.03;;;2.70;;
9689;SDS011;4884;42.614;23.340;2023-04-04T09:50:22;5.20;;;2.90;;
9689;SDS011;4884;42.614;23.340;2023-04-04T09:52:49;4.53;;;2.80;;
9689;SDS011;4884;42.614;23.340;2023-04-04T09:55:15;3.00;;;2.70;;
9689;SDS011;4884;42.614;23.340;2023-04-04T09:57:41;3.50;;;3.20;;
9689;SDS011;4884;42.614;23.340;2023-04-04T10:00:06;2.67;;;2.47;;
9689;SDS011;4884;42.614;23.340;2023-04-04T10:02:36;4.03;;;3.67;;
9689;SDS011;4884;42.614;23.340;2023-04-04T10:05:03;2.23;;;2.03;;
9689;SDS011;4884;42.614;23.340;2023-04-04T10:07:29;2.13;;;1.97;;
9689;SDS011;4884;42.614;23.340;2023-04-04T10:09:56;2.17;;;1.97;;
9689;SDS011;4884;42.614;23.340;2023-04-04T10:12:23;2.67;;;2.43;;
9689;SDS011;4884;42.614;23.340;2023-04-04T10:14:55;5.73;;;2.90;;
9689;SDS011;4884;42.614;23.340;2023-04-04T10:17:35;3.73;;;2.83;;
9689;SDS011;4884;42.614;23.340;2023-04-04T10:20:02;2.47;;;2.23;;
9689;SDS011;4884;42.614;23.340;2023-04-04T10:22:31;2.60;;;2.20;;
9689;SDS011;4884;42.614;23.340;2023-04-04T10:24:57;3.40;;;2.77;;
9689;SDS011;4884;42.614;23.340;2023-04-04T10:27:23;3.57;;;2.80;;
9689;SDS011;4884;42.614;23.340;2023-04-04T10:29:49;2.50;;;2.30;;
9689;SDS011;4884;42.614;23.340;2023-04-04T10:32:22;3.33;;;3.03;;
9689;SDS011;4884;42.614;23.340;2023-04-04T10:34:54;5.80;;;3.50;;
9689;SDS011;4884;42.614;23.340;2023-04-04T10:37:30;3.20;;;2.90;;
9689;SDS011;4884;42.614;23.340;2023-04-04T10:42:31;2.63;;;2.37;;
9689;SDS011;4884;42.614;23.340;2023-04-04T10:44:57;2.67;;;2.47;;
9689;SDS011;4884;42.614;23.340;2023-04-04T10:47:23;2.87;;;2.63;;
9689;SDS011;4884;42.614;23.340;2023-04-04T10:49:50;2.60;;;2.40;;
9689;SDS011;4884;42.614;23.340;2023-04-04T10:52:17;4.77;;;4.20;;
9689;SDS011;4884;42.614;23.340;2023-04-04T10:54:43;3.07;;;2.77;;
9689;SDS011;4884;42.614;23.340;2023-04-04T10:57:10;3.10;;;2.90;;
9689;SDS011;4884;42.614;23.340;2023-04-04T10:59:55;3.00;;;2.70;;
9689;SDS011;4884;42.614;23.340;2023-04-04T11:05:17;4.00;;;2.93;;
9689;SDS011;4884;42.614;23.340;2023-04-04T11:07:51;3.83;;;2.67;;
9689;SDS011;4884;42.614;23.340;2023-04-04T11:10:22;2.93;;;2.73;;
9689;SDS011;4884;42.614;23.340;2023-04-04T11:12:53;2.90;;;2.70;;
9689;SDS011;4884;42.614;23.340;2023-04-04T11:15:20;5.73;;;3.40;;
9689;SDS011;4884;42.614;23.340;2023-04-04T11:17:56;3.23;;;2.93;;
9689;SDS011;4884;42.614;23.340;2023-04-04T11:20:30;4.57;;;3.87;;
9689;SDS011;4884;42.614;23.340;2023-04-04T11:23:07;4.60;;;3.87;;
9689;SDS011;4884;42.614;23.340;2023-04-04T11:25:40;4.47;;;2.83;;
9689;SDS011;4884;42.614;23.340;2023-04-04T11:28:13;3.23;;;2.93;;
9689;SDS011;4884;42.614;23.340;2023-04-04T11:30:40;3.77;;;3.47;;
9689;SDS011;4884;42.614;23.340;2023-04-04T11:33:12;4.67;;;3.90;;
9689;SDS011;4884;42.614;23.340;2023-04-04T11:35:39;3.43;;;3.13;;
9689;SDS011;4884;42.614;23.340;2023-04-04T11:38:14;5.83;;;3.77;;
9689;SDS011;4884;42.614;23.340;2023-04-04T11:40:40;4.07;;;3.77;;
9689;SDS011;4884;42.614;23.340;2023-04-04T11:43:10;4.93;;;4.03;;
9689;SDS011;4884;42.614;23.340;2023-04-04T11:45:36;4.00;;;3.60;;
9689;SDS011;4884;42.614;23.340;2023-04-04T11:48:06;7.03;;;4.07;;
9689;SDS011;4884;42.614;23.340;2023-04-04T11:50:33;5.00;;;3.93;;
9689;SDS011;4884;42.614;23.340;2023-04-04T11:52:59;4.20;;;3.80;;
9689;SDS011;4884;42.614;23.340;2023-04-04T11:55:25;4.07;;;3.57;;
9689;SDS011;4884;42.614;23.340;2023-04-04T11:57:50;5.50;;;3.93;;
9689;SDS011;4884;42.614;23.340;2023-04-04T12:00:30;3.73;;;3.40;;
9689;SDS011;4884;42.614;23.340;2023-04-04T12:02:57;4.40;;;4.00;;
9689;SDS011;4884;42.614;23.340;2023-04-04T12:05:22;7.87;;;5.30;;
9689;SDS011;4884;42.614;23.340;2023-04-04T12:07:48;4.70;;;4.00;;
9689;SDS011;4884;42.614;23.340;2023-04-04T12:10:16;4.23;;;3.70;;
9689;SDS011;4884;42.614;23.340;2023-04-04T12:12:41;4.33;;;3.70;;
9689;SDS011;4884;42.614;23.340;2023-04-04T12:15:09;3.63;;;3.33;;
9689;SDS011;4884;42.614;23.340;2023-04-04T12:17:38;7.13;;;5.33;;
9689;SDS011;4884;42.614;23.340;2023-04-04T12:20:04;4.63;;;4.23;;
9689;SDS011;4884;42.614;23.340;2023-04-04T12:22:34;4.83;;;4.27;;
9689;SDS011;4884;42.614;23.340;2023-04-04T12:24:59;4.07;;;3.77;;
9689;SDS011;4884;42.614;23.340;2023-04-04T12:27:25;9.47;;;4.33;;
9689;SDS011;4884;42.614;23.340;2023-04-04T12:29:52;5.80;;;5.10;;
9689;SDS011;4884;42.614;23.340;2023-04-04T12:32:18;4.90;;;4.50;;
9689;SDS011;4884;42.614;23.340;2023-04-04T12:34:43;6.03;;;4.63;;
9689;SDS011;4884;42.614;23.340;2023-04-04T12:37:11;4.50;;;4.10;;
9689;SDS011;4884;42.614;23.340;2023-04-04T12:39:39;4.93;;;4.53;;
9689;SDS011;4884;42.614;23.340;2023-04-04T12:42:05;5.33;;;4.83;;
9689;SDS011;4884;42.614;23.340;2023-04-04T12:44:34;8.27;;;5.13;;
9689;SDS011;4884;42.614;23.340;2023-04-04T12:47:01;7.83;;;6.33;;
9689;SDS011;4884;42.614;23.340;2023-04-04T12:49:31;6.23;;;5.43;;
9689;SDS011;4884;42.614;23.340;2023-04-04T12:51:59;7.17;;;6.17;;
9689;SDS011;4884;42.614;23.340;2023-04-04T12:54:38;9.23;;;7.17;;
9689;SDS011;4884;42.614;23.340;2023-04-04T12:57:04;6.77;;;5.73;;
9689;SDS011;4884;42.614;23.340;2023-04-04T12:59:30;7.60;;;6.90;;
9689;SDS011;4884;42.614;23.340;2023-04-04T13:01:56;10.40;;;9.33;;
9689;SDS011;4884;42.614;23.340;2023-04-04T13:04:22;10.10;;;7.73;;
9689;SDS011;4884;42.614;23.340;2023-04-04T13:06:48;8.53;;;7.70;;
9689;SDS011;4884;42.614;23.340;2023-04-04T13:09:17;7.00;;;6.30;;
9689;SDS011;4884;42.614;23.340;2023-04-04T13:17:42;8.83;;;8.03;;
9689;SDS011;4884;42.614;23.340;2023-04-04T13:20:09;8.07;;;7.27;;
9689;SDS011;4884;42.614;23.340;2023-04-04T13:22:36;8.87;;;8.07;;
9689;SDS011;4884;42.614;23.340;2023-04-04T13:25:02;6.90;;;6.20;;
9689;SDS011;4884;42.614;23.340;2023-04-04T13:27:28;8.87;;;7.97;;
9689;SDS011;4884;42.614;23.340;2023-04-04T13:29:54;9.50;;;7.63;;
9689;SDS011;4884;42.614;23.340;2023-04-04T13:32:20;10.53;;;9.53;;
9689;SDS011;4884;42.614;23.340;2023-04-04T13:34:45;8.60;;;7.70;;
9689;SDS011;4884;42.614;23.340;2023-04-04T13:37:10;85.83;;;51.13;;
9689;SDS011;4884;42.614;23.340;2023-04-04T13:39:36;20.03;;;14.97;;
9689;SDS011;4884;42.614;23.340;2023-04-04T13:42:01;16.40;;;14.37;;
9689;SDS011;4884;42.614;23.340;2023-04-04T13:44:27;15.07;;;13.63;;
9689;SDS011;4884;42.614;23.340;2023-04-04T13:46:52;15.43;;;13.93;;
9689;SDS011;4884;42.614;23.340;2023-04-04T13:49:18;8.83;;;7.93;;
9689;SDS011;4884;42.614;23.340;2023-04-04T13:51:43;9.33;;;8.27;;
9689;SDS011;4884;42.614;23.340;2023-04-04T13:54:08;9.53;;;8.00;;
9689;SDS011;4884;42.614;23.340;2023-04-04T13:56:34;9.93;;;8.93;;
9689;SDS011;4884;42.614;23.340;2023-04-04T13:58:59;11.53;;;9.97;;
9689;SDS011;4884;42.614;23.340;2023-04-04T14:01:25;10.73;;;9.70;;
9689;SDS011;4884;42.614;23.340;2023-04-04T14:03:51;9.67;;;8.50;;
9689;SDS011;4884;42.614;23.340;2023-04-04T14:06:16;9.03;;;8.13;;
9689;SDS011;4884;42.614;23.340;2023-04-04T14:08:41;9.40;;;8.47;;
9689;SDS011;4884;42.614;23.340;2023-04-04T14:11:07;10.27;;;9.27;;
9689;SDS011;4884;42.614;23.340;2023-04-04T14:13:32;11.30;;;9.20;;
9689;SDS011;4884;42.614;23.340;2023-04-04T14:15:58;11.03;;;9.93;;
9689;SDS011;4884;42.614;23.340;2023-04-04T14:18:23;9.97;;;8.93;;
9689;SDS011;4884;42.614;23.340;2023-04-04T14:20:48;12.83;;;11.53;;
9689;SDS011;4884;42.614;23.340;2023-04-04T14:23:14;10.97;;;9.87;;
9689;SDS011;4884;42.614;23.340;2023-04-04T14:25:39;15.40;;;12.70;;
9689;SDS011;4884;42.614;23.340;2023-04-04T14:28:06;13.17;;;11.70;;
9689;SDS011;4884;42.614;23.340;2023-04-04T14:30:31;12.10;;;10.37;;
9689;SDS011;4884;42.614;23.340;2023-04-04T14:32:57;14.40;;;12.90;;
9689;SDS011;4884;42.614;23.340;2023-04-04T14:35:22;14.93;;;12.83;;
9689;SDS011;4884;42.614;23.340;2023-04-04T14:37:47;14.07;;;12.67;;
9689;SDS011;4884;42.614;23.340;2023-04-04T14:40:13;25.80;;;18.77;;
9689;SDS011;4884;42.614;23.340;2023-04-04T14:42:39;27.73;;;23.30;;
9689;SDS011;4884;42.614;23.340;2023-04-04T14:45:04;24.77;;;17.93;;
9689;SDS011;4884;42.614;23.340;2023-04-04T14:47:34;19.53;;;15.20;;
9689;SDS011;4884;42.614;23.340;2023-04-04T14:50:00;23.73;;;17.80;;
9689;SDS011;4884;42.614;23.340;2023-04-04T14:52:25;22.87;;;16.50;;
9689;SDS011;4884;42.614;23.340;2023-04-04T14:54:52;21.43;;;15.40;;
9689;SDS011;4884;42.614;23.340;2023-04-04T14:57:18;13.93;;;12.53;;
9689;SDS011;4884;42.614;23.340;2023-04-04T14:59:43;12.50;;;11.20;;
9689;SDS011;4884;42.614;23.340;2023-04-04T15:02:09;12.57;;;11.27;;
9689;SDS011;4884;42.614;23.340;2023-04-04T15:04:34;15.63;;;11.77;;
9689;SDS011;4884;42.614;23.340;2023-04-04T15:07:00;14.93;;;11.00;;
9689;SDS011;4884;42.614;23.340;2023-04-04T15:09:27;15.03;;;11.00;;